Time;durP1;ratioP1;P1;durP2;ratioP2;P2;SDS_P1;SDS_P2;PMS_P1;PMS_P2;Temp;Humidity;BMP_temperature;BMP_pressure;BME280_temperature;BME280_humidity;BME280_pressure;Samples;Min_cycle;Max_cycle;Signal;HPM_P1;HPM_P2
2022/05/16 00:00:12;;;;;;;0.20;0.20;;;;;;;;;;5059144;28;20390;-61
2022/05/16 00:02:38;;;;;;;2.70;0.40;;;;;;;;;;5047625;28;20032;-60
2022/05/16 00:05:03;;;;;;;0.00;0.00;;;;;;;;;;5058511;28;20025;-60
2022/05/16 00:07:28;;;;;;;0.00;0.00;;;;;;;;;;5056315;28;20016;-61
2022/05/16 00:09:54;;;;;;;0.03;0.03;;;;;;;;;;5059640;28;20033;-61
2022/05/16 00:12:19;;;;;;;3.10;1.45;;;;;;;;;;5056235;28;20025;-60
2022/05/16 00:14:46;;;;;;;0.00;0.00;;;;;;;;;;5060231;28;20025;-62
2022/05/16 00:17:12;;;;;;;0.10;0.10;;;;;;;;;;5058194;28;20045;-61
2022/05/16 00:19:39;;;;;;;0.00;0.00;;;;;;;;;;5056701;28;20025;-61
2022/05/16 00:22:05;;;;;;;0.00;0.00;;;;;;;;;;5058373;28;20128;-60
2022/05/16 00:24:30;;;;;;;0.00;0.00;;;;;;;;;;5054380;28;20024;-60
2022/05/16 00:26:56;;;;;;;0.00;0.00;;;;;;;;;;5057583;28;20389;-60
2022/05/16 00:29:22;;;;;;;0.47;0.47;;;;;;;;;;5057300;28;20565;-60
2022/05/16 00:31:47;;;;;;;0.00;0.00;;;;;;;;;;5053713;28;20029;-61
2022/05/16 00:34:13;;;;;;;0.00;0.00;;;;;;;;;;5053837;28;20031;-61
2022/05/16 00:36:38;;;;;;;0.00;0.00;;;;;;;;;;5058056;28;20036;-60
2022/05/16 00:39:06;;;;;;;0.00;0.00;;;;;;;;;;5060108;28;20484;-61
2022/05/16 00:41:31;;;;;;;0.03;0.03;;;;;;;;;;5056304;28;20711;-61
2022/05/16 00:43:58;;;;;;;0.00;0.00;;;;;;;;;;5058598;28;20025;-61
2022/05/16 00:46:31;;;;;;;0.10;0.10;;;;;;;;;;5055598;28;20424;-61
2022/05/16 00:48:56;;;;;;;0.10;0.10;;;;;;;;;;5052696;28;20115;-61
2022/05/16 00:51:30;;;;;;;0.00;0.00;;;;;;;;;;5060535;28;20052;-61
2022/05/16 00:53:56;;;;;;;1.45;1.35;;;;;;;;;;5060586;28;20029;-61
2022/05/16 00:56:26;;;;;;;1.45;0.95;;;;;;;;;;5046823;28;20099;-61
2022/05/16 00:58:51;;;;;;;0.10;0.10;;;;;;;;;;5052050;28;20044;-63
2022/05/16 01:06:45;;;;;;;0.00;0.00;;;;;;;;;;5052541;28;20500;-61
2022/05/16 01:09:10;;;;;;;0.13;0.13;;;;;;;;;;5063934;28;20017;-62
2022/05/16 01:11:37;;;;;;;0.00;0.00;;;;;;;;;;5063400;28;20036;-62
2022/05/16 01:14:02;;;;;;;0.00;0.00;;;;;;;;;;5055786;28;20035;-62
2022/05/16 01:16:28;;;;;;;0.00;0.00;;;;;;;;;;5064484;28;20371;-62
2022/05/16 01:18:53;;;;;;;0.00;0.00;;;;;;;;;;5065812;28;20020;-61
2022/05/16 01:21:32;;;;;;;0.00;0.00;;;;;;;;;;5054219;28;20021;-61
2022/05/16 01:23:57;;;;;;;0.00;0.00;;;;;;;;;;5057454;28;20028;-61
2022/05/16 01:26:26;;;;;;;0.00;0.00;;;;;;;;;;5063101;28;20031;-60
2022/05/16 01:28:52;;;;;;;0.00;0.00;;;;;;;;;;5059865;28;20056;-61
2022/05/16 01:31:18;;;;;;;0.00;0.00;;;;;;;;;;5050002;28;20017;-60
2022/05/16 01:33:43;;;;;;;0.17;0.17;;;;;;;;;;5057746;28;20043;-60
2022/05/16 01:36:08;;;;;;;0.00;0.00;;;;;;;;;;5050797;28;20052;-61
2022/05/16 01:38:34;;;;;;;0.00;0.00;;;;;;;;;;5063892;28;20017;-60
2022/05/16 01:41:02;;;;;;;0.00;0.00;;;;;;;;;;5064665;28;20025;-61
2022/05/16 01:43:32;;;;;;;0.00;0.00;;;;;;;;;;5055143;28;20541;-60
2022/05/16 01:45:58;;;;;;;0.00;0.00;;;;;;;;;;5053306;28;20020;-61
2022/05/16 01:48:23;;;;;;;0.00;0.00;;;;;;;;;;5061890;28;20108;-60
2022/05/16 01:50:49;;;;;;;0.00;0.00;;;;;;;;;;5061477;28;20016;-60
2022/05/16 01:53:14;;;;;;;0.00;0.00;;;;;;;;;;5061067;28;20069;-61
2022/05/16 01:55:40;;;;;;;0.00;0.00;;;;;;;;;;5064828;28;20020;-60
2022/05/16 01:58:05;;;;;;;0.00;0.00;;;;;;;;;;5057714;28;20461;-61
2022/05/16 02:00:31;;;;;;;0.00;0.00;;;;;;;;;;5069590;28;20437;-61
2022/05/16 02:02:57;;;;;;;0.00;0.00;;;;;;;;;;5063668;28;20032;-61
2022/05/16 02:05:22;;;;;;;0.00;0.00;;;;;;;;;;5052759;28;20025;-61
2022/05/16 02:07:50;;;;;;;0.00;0.00;;;;;;;;;;5071458;28;20024;-61
2022/05/16 02:10:16;;;;;;;0.00;0.00;;;;;;;;;;5060469;28;20048;-60
2022/05/16 02:12:41;;;;;;;0.00;0.00;;;;;;;;;;5048324;28;20035;-61
2022/05/16 02:15:07;;;;;;;0.00;0.00;;;;;;;;;;5062976;28;20521;-61
2022/05/16 02:17:33;;;;;;;0.00;0.00;;;;;;;;;;5060122;28;20477;-61
2022/05/16 02:19:58;;;;;;;0.00;0.00;;;;;;;;;;5066400;28;20047;-61
2022/05/16 02:25:08;;;;;;;0.00;0.00;;;;;;;;;;5066291;28;20078;-63
2022/05/16 02:27:33;;;;;;;0.00;0.00;;;;;;;;;;5067643;28;20404;-62
2022/05/16 02:29:58;;;;;;;0.00;0.00;;;;;;;;;;5059235;28;20053;-64
2022/05/16 02:32:23;;;;;;;0.00;0.00;;;;;;;;;;5062894;28;20062;-63
2022/05/16 02:34:49;;;;;;;0.00;0.00;;;;;;;;;;5059448;28;20021;-62
2022/05/16 02:37:14;;;;;;;0.00;0.00;;;;;;;;;;5064228;28;20024;-63
2022/05/16 02:39:44;;;;;;;0.00;0.00;;;;;;;;;;5066823;28;20442;-62
2022/05/16 02:42:09;;;;;;;0.00;0.00;;;;;;;;;;5064889;28;20032;-62
2022/05/16 02:44:35;;;;;;;0.00;0.00;;;;;;;;;;5054473;28;20033;-64
2022/05/16 02:47:00;;;;;;;0.00;0.00;;;;;;;;;;5058580;28;20021;-63
2022/05/16 02:49:26;;;;;;;0.00;0.00;;;;;;;;;;5054893;28;20412;-63
2022/05/16 02:51:51;;;;;;;0.00;0.00;;;;;;;;;;5048394;28;20029;-63
2022/05/16 02:54:16;;;;;;;0.00;0.00;;;;;;;;;;5059401;28;20025;-64
2022/05/16 02:56:42;;;;;;;0.00;0.00;;;;;;;;;;5053099;28;20017;-63
2022/05/16 02:59:07;;;;;;;0.00;0.00;;;;;;;;;;5049460;28;20092;-62
2022/05/16 03:01:36;;;;;;;0.00;0.00;;;;;;;;;;5056843;28;20021;-62
2022/05/16 03:04:02;;;;;;;0.00;0.00;;;;;;;;;;5050978;28;20372;-62
2022/05/16 03:06:27;;;;;;;0.15;0.15;;;;;;;;;;5059364;28;20028;-62
2022/05/16 03:08:53;;;;;;;0.00;0.00;;;;;;;;;;5059693;28;20037;-61
2022/05/16 03:11:18;;;;;;;0.00;0.00;;;;;;;;;;5046948;28;20619;-62
2022/05/16 03:13:43;;;;;;;0.00;0.00;;;;;;;;;;5058142;28;20017;-61
2022/05/16 03:16:08;;;;;;;0.00;0.00;;;;;;;;;;5059817;28;20020;-62
2022/05/16 03:18:33;;;;;;;0.00;0.00;;;;;;;;;;5056204;28;20354;-62
2022/05/16 03:20:59;;;;;;;0.00;0.00;;;;;;;;;;5064186;28;20082;-61
2022/05/16 03:23:24;;;;;;;0.00;0.00;;;;;;;;;;5044318;28;20017;-61
2022/05/16 03:25:50;;;;;;;0.00;0.00;;;;;;;;;;5057158;28;20100;-61
2022/05/16 03:28:15;;;;;;;0.00;0.00;;;;;;;;;;5052159;28;20024;-62
2022/05/16 03:30:42;;;;;;;0.00;0.00;;;;;;;;;;5052379;28;20049;-62
2022/05/16 03:33:07;;;;;;;0.00;0.00;;;;;;;;;;5057508;28;20037;-62
2022/05/16 03:35:32;;;;;;;0.00;0.00;;;;;;;;;;5061188;28;20032;-61
2022/05/16 03:37:58;;;;;;;0.03;0.03;;;;;;;;;;5053771;28;20448;-63
2022/05/16 03:43:07;;;;;;;0.20;0.20;;;;;;;;;;5057103;28;20075;-61
2022/05/16 03:45:32;;;;;;;0.00;0.00;;;;;;;;;;5060159;28;20017;-62
2022/05/16 03:47:57;;;;;;;0.43;0.43;;;;;;;;;;5063244;28;20029;-62
2022/05/16 03:50:23;;;;;;;0.00;0.00;;;;;;;;;;5057222;28;20013;-62
2022/05/16 03:52:48;;;;;;;0.63;0.63;;;;;;;;;;5050020;28;20014;-61
2022/05/16 03:55:14;;;;;;;0.43;0.43;;;;;;;;;;5055901;28;20108;-63
2022/05/16 03:57:41;;;;;;;0.00;0.00;;;;;;;;;;5049266;28;20078;-62
2022/05/16 04:00:09;;;;;;;0.00;0.00;;;;;;;;;;5061013;28;20048;-62
2022/05/16 04:02:36;;;;;;;0.05;0.05;;;;;;;;;;5056865;28;20025;-62
2022/05/16 04:05:01;;;;;;;0.00;0.00;;;;;;;;;;5061971;28;20051;-61
2022/05/16 04:07:27;;;;;;;0.00;0.00;;;;;;;;;;5056120;28;20017;-61
2022/05/16 04:09:52;;;;;;;0.00;0.00;;;;;;;;;;5057004;28;20034;-62
2022/05/16 04:12:17;;;;;;;0.00;0.00;;;;;;;;;;5059834;28;20036;-61
2022/05/16 04:14:42;;;;;;;0.00;0.00;;;;;;;;;;5061347;28;20035;-61
2022/05/16 04:17:07;;;;;;;0.00;0.00;;;;;;;;;;5061922;28;20087;-61
2022/05/16 04:19:33;;;;;;;0.00;0.00;;;;;;;;;;5058005;28;20043;-61
2022/05/16 04:22:01;;;;;;;0.00;0.00;;;;;;;;;;5056100;28;20053;-60
2022/05/16 04:24:26;;;;;;;0.00;0.00;;;;;;;;;;5064261;28;20024;-61
2022/05/16 04:26:51;;;;;;;0.00;0.00;;;;;;;;;;5060376;28;20542;-61
2022/05/16 04:29:17;;;;;;;0.00;0.00;;;;;;;;;;5058905;28;20072;-62
2022/05/16 04:31:42;;;;;;;0.00;0.00;;;;;;;;;;5055783;28;20032;-61
2022/05/16 04:34:09;;;;;;;0.00;0.00;;;;;;;;;;5057900;28;20493;-62
2022/05/16 04:36:35;;;;;;;0.00;0.00;;;;;;;;;;5060764;28;20104;-62
2022/05/16 04:39:00;;;;;;;0.00;0.00;;;;;;;;;;5058446;28;20108;-64
2022/05/16 04:44:09;;;;;;;0.00;0.00;;;;;;;;;;5058580;28;20075;-64
2022/05/16 04:46:34;;;;;;;0.00;0.00;;;;;;;;;;5054745;28;20041;-63
2022/05/16 04:48:59;;;;;;;0.00;0.00;;;;;;;;;;5055826;28;20091;-64
2022/05/16 04:51:25;;;;;;;0.00;0.00;;;;;;;;;;5053312;28;20024;-63
2022/05/16 04:53:50;;;;;;;0.00;0.00;;;;;;;;;;5052395;28;20526;-63
2022/05/16 04:56:15;;;;;;;0.00;0.00;;;;;;;;;;5051288;28;20428;-64
2022/05/16 04:58:40;;;;;;;0.00;0.00;;;;;;;;;;5055309;28;20116;-64
2022/05/16 05:01:06;;;;;;;0.00;0.00;;;;;;;;;;5057126;28;20396;-63
2022/05/16 05:03:31;;;;;;;0.00;0.00;;;;;;;;;;5054686;28;20036;-64
2022/05/16 05:05:56;;;;;;;0.00;0.00;;;;;;;;;;5053254;28;20537;-64
2022/05/16 05:08:21;;;;;;;0.00;0.00;;;;;;;;;;5053703;28;20020;-64
2022/05/16 05:16:15;;;;;;;0.00;0.00;;;;;;;;;;5061465;28;20378;-61
2022/05/16 05:18:41;;;;;;;0.00;0.00;;;;;;;;;;5054645;28;20036;-62
2022/05/16 05:21:07;;;;;;;0.00;0.00;;;;;;;;;;5055694;28;20017;-61
2022/05/16 05:23:35;;;;;;;0.00;0.00;;;;;;;;;;5055744;28;20047;-61
2022/05/16 05:26:00;;;;;;;0.00;0.00;;;;;;;;;;5022842;28;20029;-62
2022/05/16 05:28:26;;;;;;;0.05;0.05;;;;;;;;;;5049348;28;20025;-61
2022/05/16 05:30:51;;;;;;;0.00;0.00;;;;;;;;;;5055501;28;20469;-63
2022/05/16 05:33:16;;;;;;;0.00;0.00;;;;;;;;;;5056404;28;20110;-62
2022/05/16 05:35:42;;;;;;;0.10;0.10;;;;;;;;;;5054547;28;20079;-62
2022/05/16 05:38:09;;;;;;;0.00;0.00;;;;;;;;;;5055281;28;20016;-63
2022/05/16 05:40:34;;;;;;;0.00;0.00;;;;;;;;;;5058893;28;20033;-61
2022/05/16 05:43:03;;;;;;;0.00;0.00;;;;;;;;;;5052305;28;20031;-64
2022/05/16 05:45:28;;;;;;;;;;;;;;;;;;5056997;28;20475;-64
2022/05/16 05:47:54;;;;;;;0.00;0.00;;;;;;;;;;5055623;28;19912;-65
2022/05/16 05:50:19;;;;;;;0.00;0.00;;;;;;;;;;5059033;28;20270;-66
2022/05/16 05:52:44;;;;;;;0.00;0.00;;;;;;;;;;5056260;28;20020;-65
2022/05/16 05:55:10;;;;;;;0.15;0.15;;;;;;;;;;5054230;28;20461;-65
2022/05/16 05:57:35;;;;;;;0.00;0.00;;;;;;;;;;5048816;28;20021;-65
2022/05/16 06:00:01;;;;;;;0.00;0.00;;;;;;;;;;5054853;28;20025;-65
2022/05/16 06:02:26;;;;;;;0.00;0.00;;;;;;;;;;5061414;28;20029;-65
2022/05/16 06:04:52;;;;;;;0.00;0.00;;;;;;;;;;5048372;28;20154;-65
2022/05/16 06:07:17;;;;;;;0.00;0.00;;;;;;;;;;5060303;28;20036;-65
2022/05/16 06:09:42;;;;;;;0.00;0.00;;;;;;;;;;5049744;28;20441;-65
2022/05/16 06:12:08;;;;;;;21.15;19.60;;;;;;;;;;5055527;28;20784;-66
2022/05/16 06:14:35;;;;;;;0.00;0.00;;;;;;;;;;5050583;28;20056;-65
2022/05/16 06:17:00;;;;;;;0.00;0.00;;;;;;;;;;5054354;28;20031;-64
2022/05/16 06:19:25;;;;;;;0.00;0.00;;;;;;;;;;5059815;28;20470;-65
2022/05/16 06:21:51;;;;;;;0.00;0.00;;;;;;;;;;5059319;28;20054;-66
2022/05/16 06:27:10;;;;;;;0.00;0.00;;;;;;;;;;4975854;28;20035;-66
2022/05/16 06:29:36;;;;;;;0.00;0.00;;;;;;;;;;5054108;28;20055;-65
2022/05/16 06:32:01;;;;;;;0.00;0.00;;;;;;;;;;5051688;28;20036;-65
2022/05/16 06:34:26;;;;;;;0.00;0.00;;;;;;;;;;5058906;28;20012;-66
2022/05/16 06:36:51;;;;;;;0.00;0.00;;;;;;;;;;5053615;28;20024;-66
2022/05/16 06:39:17;;;;;;;0.00;0.00;;;;;;;;;;5060328;28;20020;-65
2022/05/16 06:41:42;;;;;;;0.00;0.00;;;;;;;;;;5060097;28;20056;-65
2022/05/16 06:44:09;;;;;;;0.00;0.00;;;;;;;;;;5054116;28;20028;-66
2022/05/16 06:46:34;;;;;;;0.00;0.00;;;;;;;;;;5053298;28;20024;-66
2022/05/16 06:48:59;;;;;;;0.00;0.00;;;;;;;;;;5052123;28;20508;-65
2022/05/16 06:51:25;;;;;;;0.00;0.00;;;;;;;;;;5057179;28;20028;-65
2022/05/16 06:53:51;;;;;;;0.00;0.00;;;;;;;;;;5055814;28;20020;-65
2022/05/16 06:56:16;;;;;;;0.00;0.00;;;;;;;;;;5057302;28;20388;-65
2022/05/16 06:58:41;;;;;;;0.00;0.00;;;;;;;;;;5052269;28;20107;-63
2022/05/16 07:01:07;;;;;;;0.00;0.00;;;;;;;;;;5057396;28;20025;-65
2022/05/16 07:03:32;;;;;;;0.00;0.00;;;;;;;;;;5052941;28;20025;-64
2022/05/16 07:05:58;;;;;;;0.00;0.00;;;;;;;;;;5053821;28;20024;-64
2022/05/16 07:08:24;;;;;;;0.00;0.00;;;;;;;;;;5055794;28;20692;-65
2022/05/16 07:10:50;;;;;;;1.45;0.77;;;;;;;;;;5059118;28;20464;-65
2022/05/16 07:13:15;;;;;;;0.00;0.00;;;;;;;;;;5050060;28;20025;-66
2022/05/16 07:15:41;;;;;;;0.00;0.00;;;;;;;;;;5050424;28;20029;-65
2022/05/16 07:18:06;;;;;;;0.22;0.22;;;;;;;;;;5053701;28;20033;-65
2022/05/16 07:20:31;;;;;;;0.00;0.00;;;;;;;;;;5052266;28;20021;-64
2022/05/16 07:22:58;;;;;;;0.00;0.00;;;;;;;;;;5057271;28;20017;-65
2022/05/16 07:25:25;;;;;;;0.08;0.08;;;;;;;;;;5051862;28;20055;-65
2022/05/16 07:27:56;;;;;;;0.00;0.00;;;;;;;;;;5053808;28;20025;-66
2022/05/16 07:30:24;;;;;;;0.00;0.00;;;;;;;;;;5054676;28;20052;-66
2022/05/16 07:32:50;;;;;;;0.00;0.00;;;;;;;;;;5052346;28;20025;-65
2022/05/16 07:35:20;;;;;;;0.00;0.00;;;;;;;;;;5054857;28;20029;-64
2022/05/16 07:37:45;;;;;;;5.18;4.18;;;;;;;;;;5055420;28;20062;-65
2022/05/16 07:40:11;;;;;;;0.00;0.00;;;;;;;;;;5056104;28;20027;-65
2022/05/16 07:42:36;;;;;;;0.00;0.00;;;;;;;;;;5052099;28;20013;-66
2022/05/16 07:45:02;;;;;;;0.00;0.00;;;;;;;;;;5056622;28;20040;-64
2022/05/16 07:47:30;;;;;;;0.00;0.00;;;;;;;;;;5052290;28;20457;-66
2022/05/16 07:49:56;;;;;;;0.00;0.00;;;;;;;;;;5056189;28;20059;-66
2022/05/16 07:52:22;;;;;;;0.00;0.00;;;;;;;;;;5056287;28;20200;-66
2022/05/16 07:54:47;;;;;;;0.00;0.00;;;;;;;;;;5039561;28;20377;-66
2022/05/16 07:57:12;;;;;;;0.80;0.80;;;;;;;;;;5057629;28;20424;-64
2022/05/16 07:59:39;;;;;;;0.00;0.00;;;;;;;;;;5057264;28;20031;-64
2022/05/16 08:02:04;;;;;;;0.00;0.00;;;;;;;;;;5054949;28;20024;-65
2022/05/16 08:04:29;;;;;;;0.00;0.00;;;;;;;;;;5057795;28;20027;-65
2022/05/16 08:06:55;;;;;;;0.00;0.00;;;;;;;;;;5055202;28;20392;-65
2022/05/16 08:12:04;;;;;;;0.28;0.28;;;;;;;;;;5057232;28;20024;-64
2022/05/16 08:14:29;;;;;;;0.00;0.00;;;;;;;;;;5053861;28;20025;-66
2022/05/16 08:16:55;;;;;;;0.10;0.10;;;;;;;;;;5058044;28;20032;-65
2022/05/16 08:19:20;;;;;;;0.08;0.08;;;;;;;;;;5050867;28;20103;-67
2022/05/16 08:21:46;;;;;;;0.00;0.00;;;;;;;;;;5056928;28;20490;-66
2022/05/16 08:24:11;;;;;;;0.00;0.00;;;;;;;;;;5060263;28;20465;-65
2022/05/16 08:26:37;;;;;;;0.20;0.20;;;;;;;;;;5056716;28;20059;-66
2022/05/16 08:29:03;;;;;;;0.10;0.10;;;;;;;;;;5054381;28;20492;-65
2022/05/16 08:31:28;;;;;;;9.63;1.00;;;;;;;;;;5060960;28;20508;-66
2022/05/16 08:33:54;;;;;;;0.00;0.00;;;;;;;;;;5054182;28;20032;-65
2022/05/16 08:41:55;;;;;;;0.00;0.00;;;;;;;;;;5062308;28;20019;-65
2022/05/16 08:44:38;;;;;;;2.83;1.42;;;;;;;;;;5055878;28;20070;-65
2022/05/16 08:47:15;;;;;;;0.00;0.00;;;;;;;;;;5060102;28;20109;-64
2022/05/16 08:49:55;;;;;;;1.45;1.27;;;;;;;;;;5061027;28;20050;-65
2022/05/16 08:52:20;;;;;;;;;;;;;;;;;;5052693;28;20021;-66
2022/05/16 08:54:49;;;;;;;2.75;2.08;;;;;;;;;;5061507;28;19916;-66
2022/05/16 08:57:17;;;;;;;0.47;0.47;;;;;;;;;;5055233;28;20036;-67
2022/05/16 08:59:56;;;;;;;4.47;1.52;;;;;;;;;;5050985;28;20032;-65
2022/05/16 09:02:22;;;;;;;2.20;1.25;;;;;;;;;;5051825;28;20078;-66
2022/05/16 09:05:06;;;;;;;0.45;0.45;;;;;;;;;;5055202;28;20025;-65
2022/05/16 09:07:39;;;;;;;0.00;0.00;;;;;;;;;;5054044;28;20025;-65
2022/05/16 09:10:08;;;;;;;0.28;0.28;;;;;;;;;;5055411;28;20115;-65
2022/05/16 09:12:46;;;;;;;0.98;0.95;;;;;;;;;;5060107;28;20092;-66
2022/05/16 09:15:17;;;;;;;0.73;0.73;;;;;;;;;;5055339;28;20543;-65
2022/05/16 09:18:01;;;;;;;0.00;0.00;;;;;;;;;;5062776;28;20017;-66
2022/05/16 09:20:45;;;;;;;0.10;0.10;;;;;;;;;;5055118;28;20025;-64
2022/05/16 09:23:29;;;;;;;2.63;1.48;;;;;;;;;;5055320;28;20048;-66
2022/05/16 09:26:00;;;;;;;3.35;1.95;;;;;;;;;;5058743;28;20032;-65
2022/05/16 09:28:34;;;;;;;1.45;1.30;;;;;;;;;;5052985;28;20415;-70
2022/05/16 09:31:08;;;;;;;0.52;0.50;;;;;;;;;;5053254;28;20036;-68
2022/05/16 09:33:35;;;;;;;0.10;0.10;;;;;;;;;;5052268;28;20707;-67
2022/05/16 09:36:05;;;;;;;2.65;1.92;;;;;;;;;;5050715;28;20028;-67
2022/05/16 09:38:31;;;;;;;5.38;0.75;;;;;;;;;;5060724;28;20020;-67
2022/05/16 09:40:59;;;;;;;0.00;0.00;;;;;;;;;;5054370;28;20019;-66
2022/05/16 09:43:24;;;;;;;0.00;0.00;;;;;;;;;;5060308;28;20024;-67
2022/05/16 09:45:53;;;;;;;0.30;0.30;;;;;;;;;;5060981;28;20042;-65
2022/05/16 09:48:20;;;;;;;4.13;0.98;;;;;;;;;;5052625;28;20021;-69
2022/05/16 09:51:06;;;;;;;1.08;0.88;;;;;;;;;;5059010;28;20025;-66
2022/05/16 09:53:43;;;;;;;0.15;0.15;;;;;;;;;;5049436;28;20507;-67
2022/05/16 09:56:30;;;;;;;0.30;0.30;;;;;;;;;;5057174;28;20016;-66
2022/05/16 09:59:00;;;;;;;1.13;1.02;;;;;;;;;;5059434;28;20021;-66
2022/05/16 10:01:31;;;;;;;1.02;1.02;;;;;;;;;;5059808;28;20515;-66
2022/05/16 10:04:06;;;;;;;2.90;0.98;;;;;;;;;;5058393;28;20385;-65
2022/05/16 10:06:34;;;;;;;0.00;0.00;;;;;;;;;;5051846;28;20115;-66
2022/05/16 10:09:04;;;;;;;0.00;0.00;;;;;;;;;;5053728;28;20377;-66
2022/05/16 10:11:31;;;;;;;0.00;0.00;;;;;;;;;;5057728;28;20828;-65
2022/05/16 10:13:57;;;;;;;0.82;0.82;;;;;;;;;;5053472;28;20077;-65
2022/05/16 10:16:24;;;;;;;0.00;0.00;;;;;;;;;;5044345;28;20389;-65
2022/05/16 10:18:50;;;;;;;0.00;0.00;;;;;;;;;;5050998;28;20090;-66
2022/05/16 10:21:21;;;;;;;17.83;1.50;;;;;;;;;;5059525;28;20505;-66
2022/05/16 10:23:46;;;;;;;0.10;0.10;;;;;;;;;;5055177;28;20024;-66
2022/05/16 10:26:17;;;;;;;0.05;0.05;;;;;;;;;;5052418;28;20025;-66
2022/05/16 10:28:49;;;;;;;0.00;0.00;;;;;;;;;;5058759;28;20086;-66
2022/05/16 10:34:06;;;;;;;0.00;0.00;;;;;;;;;;5053609;28;20051;-66
2022/05/16 10:36:33;;;;;;;0.00;0.00;;;;;;;;;;5056371;28;20032;-66
2022/05/16 10:39:03;;;;;;;0.32;0.32;;;;;;;;;;5057212;28;20435;-66
2022/05/16 10:41:39;;;;;;;0.22;0.22;;;;;;;;;;5055781;28;20025;-65
2022/05/16 10:44:13;;;;;;;1.33;1.33;;;;;;;;;;5054810;28;20049;-65
2022/05/16 10:46:41;;;;;;;1.80;0.90;;;;;;;;;;5050840;28;20021;-65
2022/05/16 10:49:10;;;;;;;1.27;1.17;;;;;;;;;;5056352;28;20012;-66
2022/05/16 10:51:54;;;;;;;1.05;1.05;;;;;;;;;;5049170;28;20025;-65
2022/05/16 10:54:23;;;;;;;0.10;0.10;;;;;;;;;;5056933;28;20408;-65
2022/05/16 10:57:07;;;;;;;0.00;0.00;;;;;;;;;;5062485;28;20017;-66
2022/05/16 10:59:36;;;;;;;3.28;2.97;;;;;;;;;;5059310;28;20024;-66
2022/05/16 11:02:14;;;;;;;0.45;0.43;;;;;;;;;;5056032;28;20047;-66
2022/05/16 11:04:51;;;;;;;0.35;0.35;;;;;;;;;;5054762;28;20027;-66
2022/05/16 11:07:20;;;;;;;6.88;1.00;;;;;;;;;;5054907;28;20021;-67
2022/05/16 11:10:00;;;;;;;4.70;1.23;;;;;;;;;;5053419;28;20532;-66
2022/05/16 11:12:46;;;;;;;1.65;1.55;;;;;;;;;;5044643;28;20162;-64
2022/05/16 11:15:23;;;;;;;0.90;0.90;;;;;;;;;;5063686;28;20040;-67
2022/05/16 11:17:48;;;;;;;0.88;0.82;;;;;;;;;;5043425;28;20048;-66
2022/05/16 11:20:19;;;;;;;0.57;0.40;;;;;;;;;;5055426;28;20048;-67
2022/05/16 11:22:52;;;;;;;1.90;1.23;;;;;;;;;;5057996;28;20267;-65
2022/05/16 11:25:31;;;;;;;1.55;0.80;;;;;;;;;;5057652;28;20021;-67
2022/05/16 11:28:00;;;;;;;1.10;0.43;;;;;;;;;;5061005;28;20075;-66
2022/05/16 11:30:38;;;;;;;4.10;2.75;;;;;;;;;;5054815;28;20123;-64
2022/05/16 11:33:03;;;;;;;1.58;1.50;;;;;;;;;;5062404;28;20051;-66
2022/05/16 11:35:40;;;;;;;2.33;1.50;;;;;;;;;;5061010;28;20633;-66
2022/05/16 11:38:26;;;;;;;0.00;0.00;;;;;;;;;;5052042;28;20387;-66
2022/05/16 11:41:04;;;;;;;11.27;1.90;;;;;;;;;;5012715;28;20044;-66
2022/05/16 11:43:31;;;;;;;0.00;0.00;;;;;;;;;;5034588;28;20029;-65
2022/05/16 11:46:07;;;;;;;1.77;0.82;;;;;;;;;;5064812;28;20077;-65
2022/05/16 11:48:32;;;;;;;2.15;1.40;;;;;;;;;;5062251;28;20071;-66
2022/05/16 11:50:57;;;;;;;0.75;0.75;;;;;;;;;;5065612;28;20465;-66
2022/05/16 11:53:42;;;;;;;3.93;0.90;;;;;;;;;;5063735;28;20032;-65
2022/05/16 12:02:11;;;;;;;0.50;0.50;;;;;;;;;;5058930;28;20093;-65
2022/05/16 12:04:40;;;;;;;1.02;0.90;;;;;;;;;;5040102;28;20023;-65
2022/05/16 12:07:12;;;;;;;0.08;0.08;;;;;;;;;;5058267;28;20158;-66
2022/05/16 12:09:58;;;;;;;0.20;0.20;;;;;;;;;;5058302;28;20024;-66
2022/05/16 12:12:32;;;;;;;0.03;0.03;;;;;;;;;;5057419;28;20082;-64
2022/05/16 12:15:26;;;;;;;0.00;0.00;;;;;;;;;;5059100;28;20025;-66
2022/05/16 12:18:02;;;;;;;0.63;0.52;;;;;;;;;;5045121;28;20044;-66
2022/05/16 12:20:35;;;;;;;0.73;0.73;;;;;;;;;;5036232;28;20071;-64
2022/05/16 12:23:01;;;;;;;2.13;1.95;;;;;;;;;;5063012;28;20473;-64
2022/05/16 12:25:28;;;;;;;11.80;3.03;;;;;;;;;;5053741;28;20044;-65
2022/05/16 12:28:12;;;;;;;2.25;2.15;;;;;;;;;;5063428;28;20025;-64
2022/05/16 12:30:37;;;;;;;4.95;1.95;;;;;;;;;;5064065;28;20079;-65
2022/05/16 12:33:03;;;;;;;0.80;0.80;;;;;;;;;;5037676;28;20053;-64
2022/05/16 12:35:28;;;;;;;0.00;0.00;;;;;;;;;;5052748;28;20032;-65
2022/05/16 12:37:54;;;;;;;0.43;0.43;;;;;;;;;;5043063;28;20531;-66
2022/05/16 12:40:35;;;;;;;0.00;0.00;;;;;;;;;;5061661;28;20053;-65
2022/05/16 12:43:00;;;;;;;1.75;1.40;;;;;;;;;;5052874;28;20112;-64
2022/05/16 12:45:31;;;;;;;1.25;1.23;;;;;;;;;;5052764;28;20100;-64
2022/05/16 12:48:03;;;;;;;0.00;0.00;;;;;;;;;;5051125;28;20111;-64
2022/05/16 12:50:46;;;;;;;0.80;0.80;;;;;;;;;;5053662;28;20024;-65
2022/05/16 12:53:40;;;;;;;0.00;0.00;;;;;;;;;;5054554;28;20017;-64
2022/05/16 12:56:08;;;;;;;0.00;0.00;;;;;;;;;;5056313;28;20068;-65
2022/05/16 12:58:36;;;;;;;1.67;1.02;;;;;;;;;;5061554;28;20044;-65
2022/05/16 13:01:11;;;;;;;0.30;0.30;;;;;;;;;;5059613;28;20059;-63
2022/05/16 13:03:55;;;;;;;0.80;0.75;;;;;;;;;;5054586;28;20047;-67
2022/05/16 13:06:39;;;;;;;0.75;0.75;;;;;;;;;;5056003;28;20013;-65
2022/05/16 13:09:10;;;;;;;0.45;0.45;;;;;;;;;;5059536;28;20026;-64
2022/05/16 13:11:54;;;;;;;3.17;2.88;;;;;;;;;;5058737;28;20083;-66
2022/05/16 13:14:20;;;;;;;0.15;0.15;;;;;;;;;;5056979;28;20032;-65
2022/05/16 13:17:04;;;;;;;1.73;0.67;;;;;;;;;;5059491;28;20361;-67
2022/05/16 13:19:31;;;;;;;0.30;0.30;;;;;;;;;;5054444;28;20351;-66
2022/05/16 13:22:09;;;;;;;5.00;1.65;;;;;;;;;;5058803;28;20021;-66
2022/05/16 13:24:35;;;;;;;6.83;1.73;;;;;;;;;;5057929;28;20021;-66
2022/05/16 13:29:48;;;;;;;0.70;0.30;;;;;;;;;;5053439;28;20118;-66
2022/05/16 13:32:15;;;;;;;0.15;0.15;;;;;;;;;;5058010;28;20044;-66
2022/05/16 13:34:45;;;;;;;0.57;0.57;;;;;;;;;;5059464;28;20151;-66
2022/05/16 13:37:11;;;;;;;1.00;0.73;;;;;;;;;;5059026;28;20029;-65
2022/05/16 13:39:39;;;;;;;12.13;8.65;;;;;;;;;;5059200;28;20024;-65
2022/05/16 13:42:04;;;;;;;1.48;1.48;;;;;;;;;;5051382;28;20078;-65
2022/05/16 13:44:37;;;;;;;0.00;0.00;;;;;;;;;;5054875;28;20616;-66
2022/05/16 13:47:04;;;;;;;0.90;0.90;;;;;;;;;;5052631;28;20041;-65
2022/05/16 13:49:30;;;;;;;2.08;1.20;;;;;;;;;;5052090;28;20052;-65
2022/05/16 13:51:55;;;;;;;0.00;0.00;;;;;;;;;;5058565;28;20040;-64
2022/05/16 13:54:29;;;;;;;2.28;2.10;;;;;;;;;;5084239;27;20394;-65
2022/05/16 13:56:58;;;;;;;11.60;1.30;;;;;;;;;;5086146;28;20032;-65
2022/05/16 13:59:25;;;;;;;1.10;1.10;;;;;;;;;;5082979;28;20020;-66
2022/05/16 14:01:52;;;;;;;0.65;0.65;;;;;;;;;;5083770;28;20036;-65
2022/05/16 14:04:21;;;;;;;0.28;0.28;;;;;;;;;;5081587;28;20013;-65
2022/05/16 14:06:50;;;;;;;0.38;0.38;;;;;;;;;;5083541;28;20078;-66
2022/05/16 14:09:22;;;;;;;0.43;0.43;;;;;;;;;;5084471;28;20090;-65
2022/05/16 14:11:48;;;;;;;1.35;0.52;;;;;;;;;;5082273;28;20020;-65
2022/05/16 14:14:15;;;;;;;8.18;1.40;;;;;;;;;;5084328;28;20538;-64
2022/05/16 14:16:42;;;;;;;3.13;0.52;;;;;;;;;;5080929;28;20177;-65
2022/05/16 14:19:12;;;;;;;0.00;0.00;;;;;;;;;;5089251;28;20039;-64
2022/05/16 14:21:59;;;;;;;0.00;0.00;;;;;;;;;;5082400;28;20445;-62
2022/05/16 14:24:26;;;;;;;0.85;0.85;;;;;;;;;;5081889;28;20538;-64
2022/05/16 14:26:52;;;;;;;0.80;0.80;;;;;;;;;;5083129;28;20444;-63
2022/05/16 14:29:26;;;;;;;0.45;0.45;;;;;;;;;;5085155;28;20044;-63
2022/05/16 14:31:58;;;;;;;0.65;0.65;;;;;;;;;;5081753;28;20040;-63
2022/05/16 14:34:23;;;;;;;0.55;0.55;;;;;;;;;;5080349;28;20024;-65
2022/05/16 14:36:48;;;;;;;0.47;0.47;;;;;;;;;;5085467;28;20020;-63
2022/05/16 14:39:18;;;;;;;0.00;0.00;;;;;;;;;;5082316;28;20016;-62
2022/05/16 14:41:51;;;;;;;2.47;2.28;;;;;;;;;;5086839;28;20369;-64
2022/05/16 14:44:18;;;;;;;1.27;0.22;;;;;;;;;;5082904;28;20035;-64
2022/05/16 14:46:55;;;;;;;11.85;1.98;;;;;;;;;;5081807;28;20035;-63
2022/05/16 14:49:21;;;;;;;0.00;0.00;;;;;;;;;;5083783;28;20039;-64
2022/05/16 14:51:47;;;;;;;0.30;0.30;;;;;;;;;;5082604;28;20385;-63
2022/05/16 14:54:19;;;;;;;2.90;2.80;;;;;;;;;;5084041;28;20044;-67
2022/05/16 14:56:44;;;;;;;0.10;0.10;;;;;;;;;;5084859;28;20059;-64
2022/05/16 14:59:10;;;;;;;0.45;0.45;;;;;;;;;;5081694;28;20764;-65
2022/05/16 15:04:18;;;;;;;0.28;0.28;;;;;;;;;;5076921;28;20031;-64
2022/05/16 15:06:44;;;;;;;0.75;0.75;;;;;;;;;;5068214;28;20029;-65
2022/05/16 15:09:10;;;;;;;3.35;1.10;;;;;;;;;;5070082;28;20115;-65
2022/05/16 15:11:41;;;;;;;1.58;1.50;;;;;;;;;;5068464;28;20388;-65
2022/05/16 15:14:06;;;;;;;7.50;0.82;;;;;;;;;;5068087;28;20103;-64
2022/05/16 15:16:31;;;;;;;3.80;3.50;;;;;;;;;;5066068;28;20139;-64
2022/05/16 15:18:57;;;;;;;0.30;0.30;;;;;;;;;;5067691;28;20024;-65
2022/05/16 15:21:23;;;;;;;1.20;0.20;;;;;;;;;;5066974;28;20753;-64
2022/05/16 15:23:49;;;;;;;1.55;0.70;;;;;;;;;;5066934;28;20039;-66
2022/05/16 15:26:15;;;;;;;1.30;1.15;;;;;;;;;;5067485;28;20027;-65
2022/05/16 15:28:42;;;;;;;2.72;0.90;;;;;;;;;;5067360;28;20034;-66
2022/05/16 15:31:08;;;;;;;0.40;0.40;;;;;;;;;;5067191;28;20028;-66
2022/05/16 15:33:33;;;;;;;0.90;0.88;;;;;;;;;;5067263;28;20032;-65